sensor_id;sensor_type;location;lat;lon;timestamp;temperature;humidity
41481;DHT22;27217;51.220;5.308;2023-05-14T00:02:20;15.10;99.90
41481;DHT22;27217;51.220;5.308;2023-05-14T00:04:46;15.20;99.90
41481;DHT22;27217;51.220;5.308;2023-05-14T00:07:12;15.20;99.90
41481;DHT22;27217;51.220;5.308;2023-05-14T00:09:38;15.50;99.90
41481;DHT22;27217;51.220;5.308;2023-05-14T00:12:05;15.50;99.90
41481;DHT22;27217;51.220;5.308;2023-05-14T00:14:31;15.30;99.90
41481;DHT22;27217;51.220;5.308;2023-05-14T00:16:56;15.30;99.90
41481;DHT22;27217;51.220;5.308;2023-05-14T00:19:24;15.20;99.90
41481;DHT22;27217;51.220;5.308;2023-05-14T00:21:50;15.10;99.90
41481;DHT22;27217;51.220;5.308;2023-05-14T00:24:16;14.90;99.90
41481;DHT22;27217;51.220;5.308;2023-05-14T00:26:41;14.80;99.90
41481;DHT22;27217;51.220;5.308;2023-05-14T00:29:08;14.70;99.90
41481;DHT22;27217;51.220;5.308;2023-05-14T00:31:34;14.60;99.90
41481;DHT22;27217;51.220;5.308;2023-05-14T00:34:00;14.80;99.90
41481;DHT22;27217;51.220;5.308;2023-05-14T00:36:26;14.70;99.90
41481;DHT22;27217;51.220;5.308;2023-05-14T00:38:52;14.90;99.90
41481;DHT22;27217;51.220;5.308;2023-05-14T00:41:18;15.10;99.90
41481;DHT22;27217;51.220;5.308;2023-05-14T00:43:44;15.10;99.90
41481;DHT22;27217;51.220;5.308;2023-05-14T00:46:10;14.90;99.90
41481;DHT22;27217;51.220;5.308;2023-05-14T00:48:36;14.70;99.90
41481;DHT22;27217;51.220;5.308;2023-05-14T00:51:02;14.60;99.90
41481;DHT22;27217;51.220;5.308;2023-05-14T00:53:29;14.60;99.90
41481;DHT22;27217;51.220;5.308;2023-05-14T00:55:56;14.50;99.90
41481;DHT22;27217;51.220;5.308;2023-05-14T00:58:21;14.60;99.90
41481;DHT22;27217;51.220;5.308;2023-05-14T01:00:48;14.60;99.90
41481;DHT22;27217;51.220;5.308;2023-05-14T01:03:14;14.50;99.90
41481;DHT22;27217;51.220;5.308;2023-05-14T01:12:19;14.60;99.90
41481;DHT22;27217;51.220;5.308;2023-05-14T01:16:52;14.40;99.90
41481;DHT22;27217;51.220;5.308;2023-05-14T01:19:44;14.40;99.90
41481;DHT22;27217;51.220;5.308;2023-05-14T01:22:12;14.40;99.90
41481;DHT22;27217;51.220;5.308;2023-05-14T01:24:39;14.40;99.90
41481;DHT22;27217;51.220;5.308;2023-05-14T01:27:29;14.40;99.90
41481;DHT22;27217;51.220;5.308;2023-05-14T01:30:23;14.40;99.90
41481;DHT22;27217;51.220;5.308;2023-05-14T01:32:53;14.40;99.90
41481;DHT22;27217;51.220;5.308;2023-05-14T01:35:23;14.40;99.90
41481;DHT22;27217;51.220;5.308;2023-05-14T01:37:50;14.20;99.90
41481;DHT22;27217;51.220;5.308;2023-05-14T01:40:18;14.10;99.90
41481;DHT22;27217;51.220;5.308;2023-05-14T01:42:44;14.00;99.90
41481;DHT22;27217;51.220;5.308;2023-05-14T01:45:11;13.90;99.90
41481;DHT22;27217;51.220;5.308;2023-05-14T01:47:36;13.70;99.90
41481;DHT22;27217;51.220;5.308;2023-05-14T01:50:02;13.70;99.90
41481;DHT22;27217;51.220;5.308;2023-05-14T01:52:28;13.60;99.90
41481;DHT22;27217;51.220;5.308;2023-05-14T01:54:55;13.80;99.90
41481;DHT22;27217;51.220;5.308;2023-05-14T01:57:22;13.60;99.90
41481;DHT22;27217;51.220;5.308;2023-05-14T01:59:48;13.60;99.90
41481;DHT22;27217;51.220;5.308;2023-05-14T02:02:14;13.50;99.90
41481;DHT22;27217;51.220;5.308;2023-05-14T02:04:40;13.40;99.90
41481;DHT22;27217;51.220;5.308;2023-05-14T02:07:06;13.40;99.90
41481;DHT22;27217;51.220;5.308;2023-05-14T02:09:32;13.50;99.90
41481;DHT22;27217;51.220;5.308;2023-05-14T02:11:58;13.50;99.90
41481;DHT22;27217;51.220;5.308;2023-05-14T02:14:24;13.50;99.90
41481;DHT22;27217;51.220;5.308;2023-05-14T02:16:50;13.40;99.90
41481;DHT22;27217;51.220;5.308;2023-05-14T02:19:19;13.30;99.90
41481;DHT22;27217;51.220;5.308;2023-05-14T02:21:45;13.20;99.90
41481;DHT22;27217;51.220;5.308;2023-05-14T02:24:10;13.10;99.90
41481;DHT22;27217;51.220;5.308;2023-05-14T02:26:36;13.20;99.90
41481;DHT22;27217;51.220;5.308;2023-05-14T02:29:02;13.20;99.90
41481;DHT22;27217;51.220;5.308;2023-05-14T02:31:28;13.10;99.90
41481;DHT22;27217;51.220;5.308;2023-05-14T02:33:54;13.10;99.90
41481;DHT22;27217;51.220;5.308;2023-05-14T02:36:20;13.10;99.90
41481;DHT22;27217;51.220;5.308;2023-05-14T02:38:46;13.10;99.90
41481;DHT22;27217;51.220;5.308;2023-05-14T02:41:12;13.10;99.90
41481;DHT22;27217;51.220;5.308;2023-05-14T02:43:38;13.10;99.90
41481;DHT22;27217;51.220;5.308;2023-05-14T02:46:04;13.20;99.90
41481;DHT22;27217;51.220;5.308;2023-05-14T02:48:30;13.20;99.90
41481;DHT22;27217;51.220;5.308;2023-05-14T02:50:55;13.10;99.90
41481;DHT22;27217;51.220;5.308;2023-05-14T02:53:21;13.10;99.90
41481;DHT22;27217;51.220;5.308;2023-05-14T02:55:47;13.20;99.90
41481;DHT22;27217;51.220;5.308;2023-05-14T02:58:13;13.60;99.90
41481;DHT22;27217;51.220;5.308;2023-05-14T03:00:39;13.40;99.90
41481;DHT22;27217;51.220;5.308;2023-05-14T03:03:05;13.40;99.90
41481;DHT22;27217;51.220;5.308;2023-05-14T03:05:31;13.20;99.90
41481;DHT22;27217;51.220;5.308;2023-05-14T03:07:57;13.40;99.90
41481;DHT22;27217;51.220;5.308;2023-05-14T03:10:23;13.10;99.90
41481;DHT22;27217;51.220;5.308;2023-05-14T03:12:49;13.20;99.90
41481;DHT22;27217;51.220;5.308;2023-05-14T03:15:14;13.10;99.90
41481;DHT22;27217;51.220;5.308;2023-05-14T03:17:41;13.10;99.90
41481;DHT22;27217;51.220;5.308;2023-05-14T03:20:07;13.00;99.90
41481;DHT22;27217;51.220;5.308;2023-05-14T03:22:35;13.10;99.90
41481;DHT22;27217;51.220;5.308;2023-05-14T03:25:01;13.10;99.90
41481;DHT22;27217;51.220;5.308;2023-05-14T03:27:26;13.10;99.90
41481;DHT22;27217;51.220;5.308;2023-05-14T03:29:52;12.90;99.90
41481;DHT22;27217;51.220;5.308;2023-05-14T03:32:18;13.00;99.90
41481;DHT22;27217;51.220;5.308;2023-05-14T03:34:44;12.90;99.90
41481;DHT22;27217;51.220;5.308;2023-05-14T03:37:10;12.80;99.90
41481;DHT22;27217;51.220;5.308;2023-05-14T03:39:36;12.90;99.90
41481;DHT22;27217;51.220;5.308;2023-05-14T03:42:03;13.00;99.90
41481;DHT22;27217;51.220;5.308;2023-05-14T03:44:29;13.00;99.90
41481;DHT22;27217;51.220;5.308;2023-05-14T03:46:55;12.80;99.90
41481;DHT22;27217;51.220;5.308;2023-05-14T03:49:21;12.70;99.90
41481;DHT22;27217;51.220;5.308;2023-05-14T03:51:47;12.50;99.90
41481;DHT22;27217;51.220;5.308;2023-05-14T03:54:13;12.50;99.90
41481;DHT22;27217;51.220;5.308;2023-05-14T03:56:39;12.40;99.90
41481;DHT22;27217;51.220;5.308;2023-05-14T03:59:05;12.40;99.90
41481;DHT22;27217;51.220;5.308;2023-05-14T04:01:31;12.40;99.90
41481;DHT22;27217;51.220;5.308;2023-05-14T04:03:56;12.30;99.90
41481;DHT22;27217;51.220;5.308;2023-05-14T04:06:23;12.40;99.90
41481;DHT22;27217;51.220;5.308;2023-05-14T04:08:48;12.50;99.90
41481;DHT22;27217;51.220;5.308;2023-05-14T04:11:15;12.40;99.90
41481;DHT22;27217;51.220;5.308;2023-05-14T04:13:40;12.40;99.90
41481;DHT22;27217;51.220;5.308;2023-05-14T04:16:06;12.30;99.90
41481;DHT22;27217;51.220;5.308;2023-05-14T04:18:32;12.20;99.90
41481;DHT22;27217;51.220;5.308;2023-05-14T04:21:01;12.10;99.90
41481;DHT22;27217;51.220;5.308;2023-05-14T04:23:28;11.90;99.90
41481;DHT22;27217;51.220;5.308;2023-05-14T04:25:54;12.10;99.90
41481;DHT22;27217;51.220;5.308;2023-05-14T04:28:19;12.20;99.90
41481;DHT22;27217;51.220;5.308;2023-05-14T04:30:45;12.20;99.90
41481;DHT22;27217;51.220;5.308;2023-05-14T04:33:12;12.30;99.90
41481;DHT22;27217;51.220;5.308;2023-05-14T04:35:38;12.50;99.90
41481;DHT22;27217;51.220;5.308;2023-05-14T04:38:03;12.50;99.90
41481;DHT22;27217;51.220;5.308;2023-05-14T04:40:29;12.30;99.90
41481;DHT22;27217;51.220;5.308;2023-05-14T04:42:56;12.30;99.90
41481;DHT22;27217;51.220;5.308;2023-05-14T04:45:25;12.40;99.90
41481;DHT22;27217;51.220;5.308;2023-05-14T04:47:51;12.50;99.90
41481;DHT22;27217;51.220;5.308;2023-05-14T04:50:17;12.50;99.90
41481;DHT22;27217;51.220;5.308;2023-05-14T04:52:43;12.50;99.90
41481;DHT22;27217;51.220;5.308;2023-05-14T04:55:09;12.50;99.90
41481;DHT22;27217;51.220;5.308;2023-05-14T04:57:35;12.80;99.90
41481;DHT22;27217;51.220;5.308;2023-05-14T05:00:02;12.90;99.90
41481;DHT22;27217;51.220;5.308;2023-05-14T05:02:30;12.90;99.90
41481;DHT22;27217;51.220;5.308;2023-05-14T05:04:56;12.80;99.90
41481;DHT22;27217;51.220;5.308;2023-05-14T05:07:23;13.00;99.90
41481;DHT22;27217;51.220;5.308;2023-05-14T05:09:48;13.00;99.90
41481;DHT22;27217;51.220;5.308;2023-05-14T05:12:14;12.90;99.90
41481;DHT22;27217;51.220;5.308;2023-05-14T05:14:40;12.80;99.90
41481;DHT22;27217;51.220;5.308;2023-05-14T05:17:06;12.80;99.90
41481;DHT22;27217;51.220;5.308;2023-05-14T05:19:32;12.70;99.90
41481;DHT22;27217;51.220;5.308;2023-05-14T05:21:58;13.00;99.90
41481;DHT22;27217;51.220;5.308;2023-05-14T05:24:24;13.00;99.90
41481;DHT22;27217;51.220;5.308;2023-05-14T05:26:50;13.10;99.90
41481;DHT22;27217;51.220;5.308;2023-05-14T05:29:16;13.20;99.90
41481;DHT22;27217;51.220;5.308;2023-05-14T05:31:42;13.30;99.90
41481;DHT22;27217;51.220;5.308;2023-05-14T05:34:08;13.10;99.90
41481;DHT22;27217;51.220;5.308;2023-05-14T05:36:34;13.10;99.90
41481;DHT22;27217;51.220;5.308;2023-05-14T05:39:01;13.10;99.90
41481;DHT22;27217;51.220;5.308;2023-05-14T05:41:27;13.10;99.90
41481;DHT22;27217;51.220;5.308;2023-05-14T05:43:54;13.20;99.90
41481;DHT22;27217;51.220;5.308;2023-05-14T05:46:20;13.10;99.90
41481;DHT22;27217;51.220;5.308;2023-05-14T05:48:46;13.10;99.90
41481;DHT22;27217;51.220;5.308;2023-05-14T05:51:12;13.00;99.90
41481;DHT22;27217;51.220;5.308;2023-05-14T05:53:39;13.00;99.90
41481;DHT22;27217;51.220;5.308;2023-05-14T05:56:05;12.90;99.90
41481;DHT22;27217;51.220;5.308;2023-05-14T05:58:32;13.30;99.90
41481;DHT22;27217;51.220;5.308;2023-05-14T06:00:58;13.30;99.90
41481;DHT22;27217;51.220;5.308;2023-05-14T06:03:24;13.10;99.90
41481;DHT22;27217;51.220;5.308;2023-05-14T06:05:51;13.20;99.90
41481;DHT22;27217;51.220;5.308;2023-05-14T06:08:17;13.40;99.90
41481;DHT22;27217;51.220;5.308;2023-05-14T06:10:43;13.40;99.90
41481;DHT22;27217;51.220;5.308;2023-05-14T06:13:09;13.30;99.90
41481;DHT22;27217;51.220;5.308;2023-05-14T06:15:35;13.20;99.90
41481;DHT22;27217;51.220;5.308;2023-05-14T06:18:01;13.10;99.90
41481;DHT22;27217;51.220;5.308;2023-05-14T06:20:27;13.20;99.90
41481;DHT22;27217;51.220;5.308;2023-05-14T06:22:53;13.40;99.90
41481;DHT22;27217;51.220;5.308;2023-05-14T06:25:19;13.60;99.90
41481;DHT22;27217;51.220;5.308;2023-05-14T06:27:45;14.10;99.90
41481;DHT22;27217;51.220;5.308;2023-05-14T06:30:12;14.40;99.90
41481;DHT22;27217;51.220;5.308;2023-05-14T06:32:38;14.60;99.90
41481;DHT22;27217;51.220;5.308;2023-05-14T06:35:04;14.70;99.90
41481;DHT22;27217;51.220;5.308;2023-05-14T06:37:30;14.50;99.90
41481;DHT22;27217;51.220;5.308;2023-05-14T06:39:56;14.60;99.90
41481;DHT22;27217;51.220;5.308;2023-05-14T06:42:23;14.80;99.90
41481;DHT22;27217;51.220;5.308;2023-05-14T06:44:49;14.90;99.90
41481;DHT22;27217;51.220;5.308;2023-05-14T06:47:15;15.00;99.90
41481;DHT22;27217;51.220;5.308;2023-05-14T06:49:41;15.60;99.90
41481;DHT22;27217;51.220;5.308;2023-05-14T06:52:07;15.30;99.90
41481;DHT22;27217;51.220;5.308;2023-05-14T06:54:32;15.30;99.90
41481;DHT22;27217;51.220;5.308;2023-05-14T06:56:59;15.50;99.90
41481;DHT22;27217;51.220;5.308;2023-05-14T06:59:24;15.40;99.90
41481;DHT22;27217;51.220;5.308;2023-05-14T07:01:50;15.40;99.90
41481;DHT22;27217;51.220;5.308;2023-05-14T07:04:16;15.30;99.90
41481;DHT22;27217;51.220;5.308;2023-05-14T07:06:42;15.20;99.90
41481;DHT22;27217;51.220;5.308;2023-05-14T07:09:08;15.10;99.90
41481;DHT22;27217;51.220;5.308;2023-05-14T07:11:35;15.50;99.90
41481;DHT22;27217;51.220;5.308;2023-05-14T07:14:00;16.00;99.90
41481;DHT22;27217;51.220;5.308;2023-05-14T07:16:27;16.20;99.90
41481;DHT22;27217;51.220;5.308;2023-05-14T07:18:52;16.50;99.90
41481;DHT22;27217;51.220;5.308;2023-05-14T07:21:18;16.40;99.90
41481;DHT22;27217;51.220;5.308;2023-05-14T07:23:44;16.50;99.90
41481;DHT22;27217;51.220;5.308;2023-05-14T07:26:10;16.30;99.90
41481;DHT22;27217;51.220;5.308;2023-05-14T07:28:36;16.10;99.90
41481;DHT22;27217;51.220;5.308;2023-05-14T07:31:02;16.20;99.90
41481;DHT22;27217;51.220;5.308;2023-05-14T07:33:34;16.80;99.90
41481;DHT22;27217;51.220;5.308;2023-05-14T07:36:00;17.00;99.90
41481;DHT22;27217;51.220;5.308;2023-05-14T07:38:26;16.80;99.90
41481;DHT22;27217;51.220;5.308;2023-05-14T07:40:52;16.70;99.90
41481;DHT22;27217;51.220;5.308;2023-05-14T07:43:17;16.90;99.90
41481;DHT22;27217;51.220;5.308;2023-05-14T07:45:44;17.00;99.90
41481;DHT22;27217;51.220;5.308;2023-05-14T07:48:10;17.00;99.90
41481;DHT22;27217;51.220;5.308;2023-05-14T07:50:36;17.20;99.90
41481;DHT22;27217;51.220;5.308;2023-05-14T07:53:02;17.00;99.90
41481;DHT22;27217;51.220;5.308;2023-05-14T07:55:28;17.00;99.90
41481;DHT22;27217;51.220;5.308;2023-05-14T07:57:54;17.10;99.90
41481;DHT22;27217;51.220;5.308;2023-05-14T08:00:20;17.00;99.90
41481;DHT22;27217;51.220;5.308;2023-05-14T08:02:45;17.20;99.90
41481;DHT22;27217;51.220;5.308;2023-05-14T08:05:12;17.40;99.90
41481;DHT22;27217;51.220;5.308;2023-05-14T08:07:38;17.50;99.90
41481;DHT22;27217;51.220;5.308;2023-05-14T08:10:04;17.60;99.90
41481;DHT22;27217;51.220;5.308;2023-05-14T08:12:32;17.60;99.90
41481;DHT22;27217;51.220;5.308;2023-05-14T08:14:57;17.50;99.90
41481;DHT22;27217;51.220;5.308;2023-05-14T08:17:24;17.70;99.90
41481;DHT22;27217;51.220;5.308;2023-05-14T08:19:50;17.70;99.90
41481;DHT22;27217;51.220;5.308;2023-05-14T08:22:15;17.30;99.90
41481;DHT22;27217;51.220;5.308;2023-05-14T08:24:41;17.60;99.90
41481;DHT22;27217;51.220;5.308;2023-05-14T08:27:08;17.60;99.90
41481;DHT22;27217;51.220;5.308;2023-05-14T08:29:34;17.50;99.90
41481;DHT22;27217;51.220;5.308;2023-05-14T08:32:01;17.70;99.90
41481;DHT22;27217;51.220;5.308;2023-05-14T08:34:26;17.80;99.90
41481;DHT22;27217;51.220;5.308;2023-05-14T08:36:53;17.40;99.90
41481;DHT22;27217;51.220;5.308;2023-05-14T08:39:19;17.30;99.90
41481;DHT22;27217;51.220;5.308;2023-05-14T08:41:45;17.50;99.90
41481;DHT22;27217;51.220;5.308;2023-05-14T08:44:13;17.90;99.90
41481;DHT22;27217;51.220;5.308;2023-05-14T08:46:40;18.40;99.90
41481;DHT22;27217;51.220;5.308;2023-05-14T08:49:39;18.20;99.90
41481;DHT22;27217;51.220;5.308;2023-05-14T08:52:07;18.20;99.90
41481;DHT22;27217;51.220;5.308;2023-05-14T08:54:33;18.60;99.90
41481;DHT22;27217;51.220;5.308;2023-05-14T08:56:59;18.80;99.90
41481;DHT22;27217;51.220;5.308;2023-05-14T08:59:25;18.60;99.90
41481;DHT22;27217;51.220;5.308;2023-05-14T09:01:52;18.60;99.90
41481;DHT22;27217;51.220;5.308;2023-05-14T09:04:20;18.40;99.90
41481;DHT22;27217;51.220;5.308;2023-05-14T09:06:55;18.70;99.90
41481;DHT22;27217;51.220;5.308;2023-05-14T09:09:22;18.60;99.90
41481;DHT22;27217;51.220;5.308;2023-05-14T09:11:50;18.30;99.90
41481;DHT22;27217;51.220;5.308;2023-05-14T09:14:17;18.80;99.90
41481;DHT22;27217;51.220;5.308;2023-05-14T09:16:47;19.20;99.90
41481;DHT22;27217;51.220;5.308;2023-05-14T09:19:14;19.20;99.90
41481;DHT22;27217;51.220;5.308;2023-05-14T09:21:41;18.90;99.90
41481;DHT22;27217;51.220;5.308;2023-05-14T09:24:21;19.10;99.90
41481;DHT22;27217;51.220;5.308;2023-05-14T09:26:52;19.40;99.90
41481;DHT22;27217;51.220;5.308;2023-05-14T09:29:18;19.20;99.90
41481;DHT22;27217;51.220;5.308;2023-05-14T09:31:44;18.90;99.90
41481;DHT22;27217;51.220;5.308;2023-05-14T09:34:10;19.20;99.90
41481;DHT22;27217;51.220;5.308;2023-05-14T09:36:36;19.20;99.90
41481;DHT22;27217;51.220;5.308;2023-05-14T09:39:03;19.50;99.90
41481;DHT22;27217;51.220;5.308;2023-05-14T09:41:29;19.90;99.90
41481;DHT22;27217;51.220;5.308;2023-05-14T09:43:56;19.80;99.90
41481;DHT22;27217;51.220;5.308;2023-05-14T09:46:22;19.70;99.90
41481;DHT22;27217;51.220;5.308;2023-05-14T09:48:48;19.80;99.90
41481;DHT22;27217;51.220;5.308;2023-05-14T09:51:15;20.20;99.90
41481;DHT22;27217;51.220;5.308;2023-05-14T09:53:43;20.10;99.90
41481;DHT22;27217;51.220;5.308;2023-05-14T09:56:09;20.20;99.90
41481;DHT22;27217;51.220;5.308;2023-05-14T09:58:35;20.00;99.90
41481;DHT22;27217;51.220;5.308;2023-05-14T10:01:01;20.10;99.90
41481;DHT22;27217;51.220;5.308;2023-05-14T10:03:29;20.50;99.90
41481;DHT22;27217;51.220;5.308;2023-05-14T10:06:00;20.50;99.90
41481;DHT22;27217;51.220;5.308;2023-05-14T10:08:33;20.70;99.90
41481;DHT22;27217;51.220;5.308;2023-05-14T10:11:03;20.80;99.10
41481;DHT22;27217;51.220;5.308;2023-05-14T10:13:40;20.80;98.90
41481;DHT22;27217;51.220;5.308;2023-05-14T10:16:18;21.10;98.20
41481;DHT22;27217;51.220;5.308;2023-05-14T10:18:46;21.20;96.80
41481;DHT22;27217;51.220;5.308;2023-05-14T10:21:16;21.30;97.00
41481;DHT22;27217;51.220;5.308;2023-05-14T10:23:45;20.60;98.00
41481;DHT22;27217;51.220;5.308;2023-05-14T10:26:11;20.80;98.10
41481;DHT22;27217;51.220;5.308;2023-05-14T10:28:38;21.20;97.80
41481;DHT22;27217;51.220;5.308;2023-05-14T10:31:04;21.20;97.80
41481;DHT22;27217;51.220;5.308;2023-05-14T10:33:45;21.40;97.30
41481;DHT22;27217;51.220;5.308;2023-05-14T10:36:12;21.70;96.80
41481;DHT22;27217;51.220;5.308;2023-05-14T10:38:37;21.50;97.50
41481;DHT22;27217;51.220;5.308;2023-05-14T10:41:06;21.50;96.90
41481;DHT22;27217;51.220;5.308;2023-05-14T10:43:39;21.70;96.40
41481;DHT22;27217;51.220;5.308;2023-05-14T10:46:06;21.90;95.50
41481;DHT22;27217;51.220;5.308;2023-05-14T10:48:33;21.70;95.20
41481;DHT22;27217;51.220;5.308;2023-05-14T10:51:00;22.40;93.50
41481;DHT22;27217;51.220;5.308;2023-05-14T10:53:38;22.40;92.20
41481;DHT22;27217;51.220;5.308;2023-05-14T10:56:10;22.60;92.60
41481;DHT22;27217;51.220;5.308;2023-05-14T10:58:42;22.50;92.20
41481;DHT22;27217;51.220;5.308;2023-05-14T11:01:11;22.60;92.40
41481;DHT22;27217;51.220;5.308;2023-05-14T11:03:42;23.00;91.90
41481;DHT22;27217;51.220;5.308;2023-05-14T11:06:10;23.50;90.70
41481;DHT22;27217;51.220;5.308;2023-05-14T11:08:37;24.50;86.20
41481;DHT22;27217;51.220;5.308;2023-05-14T11:11:03;25.90;79.80
41481;DHT22;27217;51.220;5.308;2023-05-14T11:13:29;27.50;71.80
41481;DHT22;27217;51.220;5.308;2023-05-14T11:15:56;27.90;66.40
41481;DHT22;27217;51.220;5.308;2023-05-14T11:18:33;27.80;65.20
41481;DHT22;27217;51.220;5.308;2023-05-14T11:21:02;27.70;64.80
41481;DHT22;27217;51.220;5.308;2023-05-14T11:23:28;26.90;64.40
41481;DHT22;27217;51.220;5.308;2023-05-14T11:25:55;28.20;61.80
41481;DHT22;27217;51.220;5.308;2023-05-14T11:28:25;29.10;59.80
41481;DHT22;27217;51.220;5.308;2023-05-14T11:30:52;29.90;58.50
41481;DHT22;27217;51.220;5.308;2023-05-14T11:33:18;29.50;57.50
41481;DHT22;27217;51.220;5.308;2023-05-14T11:35:45;30.20;57.20
41481;DHT22;27217;51.220;5.308;2023-05-14T11:38:18;30.00;55.90
41481;DHT22;27217;51.220;5.308;2023-05-14T11:40:54;31.20;54.00
41481;DHT22;27217;51.220;5.308;2023-05-14T11:43:21;32.10;52.90
41481;DHT22;27217;51.220;5.308;2023-05-14T11:45:50;32.50;51.90
41481;DHT22;27217;51.220;5.308;2023-05-14T11:48:17;33.10;50.10
41481;DHT22;27217;51.220;5.308;2023-05-14T11:50:47;33.10;47.60
41481;DHT22;27217;51.220;5.308;2023-05-14T11:53:39;32.80;48.30
41481;DHT22;27217;51.220;5.308;2023-05-14T11:56:06;32.10;47.30
41481;DHT22;27217;51.220;5.308;2023-05-14T11:58:32;32.00;48.30
41481;DHT22;27217;51.220;5.308;2023-05-14T12:01:00;30.70;48.50
41481;DHT22;27217;51.220;5.308;2023-05-14T12:03:26;32.80;47.70
41481;DHT22;27217;51.220;5.308;2023-05-14T12:05:57;33.40;47.40
41481;DHT22;27217;51.220;5.308;2023-05-14T12:08:31;33.40;47.80
41481;DHT22;27217;51.220;5.308;2023-05-14T12:11:00;33.20;46.90
41481;DHT22;27217;51.220;5.308;2023-05-14T12:13:28;32.30;46.90
41481;DHT22;27217;51.220;5.308;2023-05-14T12:15:56;29.50;49.10
41481;DHT22;27217;51.220;5.308;2023-05-14T12:18:24;29.50;51.50
41481;DHT22;27217;51.220;5.308;2023-05-14T12:20:50;30.50;50.80
41481;DHT22;27217;51.220;5.308;2023-05-14T12:23:23;30.90;50.10
41481;DHT22;27217;51.220;5.308;2023-05-14T12:25:50;31.30;51.40
41481;DHT22;27217;51.220;5.308;2023-05-14T12:28:17;33.10;49.60
41481;DHT22;27217;51.220;5.308;2023-05-14T12:30:43;32.20;50.70
41481;DHT22;27217;51.220;5.308;2023-05-14T12:33:09;30.40;52.30
41481;DHT22;27217;51.220;5.308;2023-05-14T12:35:34;28.80;53.70
41481;DHT22;27217;51.220;5.308;2023-05-14T12:38:02;27.10;56.70
41481;DHT22;27217;51.220;5.308;2023-05-14T12:40:28;26.80;57.40
41481;DHT22;27217;51.220;5.308;2023-05-14T12:42:54;25.90;57.80
41481;DHT22;27217;51.220;5.308;2023-05-14T12:45:21;25.50;59.10
41481;DHT22;27217;51.220;5.308;2023-05-14T12:47:47;25.20;60.90
41481;DHT22;27217;51.220;5.308;2023-05-14T12:50:13;25.30;60.60
41481;DHT22;27217;51.220;5.308;2023-05-14T12:52:38;25.30;57.30
41481;DHT22;27217;51.220;5.308;2023-05-14T12:55:06;25.10;56.20
41481;DHT22;27217;51.220;5.308;2023-05-14T12:57:32;25.50;56.50
41481;DHT22;27217;51.220;5.308;2023-05-14T12:59:59;26.10;54.20
41481;DHT22;27217;51.220;5.308;2023-05-14T13:02:25;26.60;51.30
41481;DHT22;27217;51.220;5.308;2023-05-14T13:04:50;27.10;47.50
41481;DHT22;27217;51.220;5.308;2023-05-14T13:07:16;27.50;46.40
41481;DHT22;27217;51.220;5.308;2023-05-14T13:09:42;26.90;50.00
41481;DHT22;27217;51.220;5.308;2023-05-14T13:12:08;26.70;51.30
41481;DHT22;27217;51.220;5.308;2023-05-14T13:14:34;26.70;52.60
41481;DHT22;27217;51.220;5.308;2023-05-14T13:17:01;26.10;52.60
41481;DHT22;27217;51.220;5.308;2023-05-14T13:19:27;25.80;52.10
41481;DHT22;27217;51.220;5.308;2023-05-14T13:21:53;26.40;51.90
41481;DHT22;27217;51.220;5.308;2023-05-14T13:24:19;27.40;48.00
41481;DHT22;27217;51.220;5.308;2023-05-14T13:26:45;28.10;48.30
41481;DHT22;27217;51.220;5.308;2023-05-14T13:29:11;28.50;48.10
41481;DHT22;27217;51.220;5.308;2023-05-14T13:31:37;30.20;47.40
41481;DHT22;27217;51.220;5.308;2023-05-14T13:34:03;31.30;46.70
41481;DHT22;27217;51.220;5.308;2023-05-14T13:36:29;32.10;45.30
41481;DHT22;27217;51.220;5.308;2023-05-14T13:38:56;32.10;45.30
41481;DHT22;27217;51.220;5.308;2023-05-14T13:41:22;31.40;45.10
41481;DHT22;27217;51.220;5.308;2023-05-14T13:43:48;28.60;47.60
41481;DHT22;27217;51.220;5.308;2023-05-14T13:46:14;28.20;48.50
41481;DHT22;27217;51.220;5.308;2023-05-14T13:48:40;27.60;49.50
41481;DHT22;27217;51.220;5.308;2023-05-14T13:51:06;27.80;49.60
41481;DHT22;27217;51.220;5.308;2023-05-14T13:53:32;28.00;48.70
41481;DHT22;27217;51.220;5.308;2023-05-14T13:55:58;28.20;48.20
41481;DHT22;27217;51.220;5.308;2023-05-14T13:58:26;30.40;46.80
41481;DHT22;27217;51.220;5.308;2023-05-14T14:00:53;31.30;44.50
41481;DHT22;27217;51.220;5.308;2023-05-14T14:03:19;32.90;43.50
41481;DHT22;27217;51.220;5.308;2023-05-14T14:05:45;33.60;42.30
41481;DHT22;27217;51.220;5.308;2023-05-14T14:08:11;32.90;42.20
41481;DHT22;27217;51.220;5.308;2023-05-14T14:10:37;31.50;43.50
41481;DHT22;27217;51.220;5.308;2023-05-14T14:13:05;29.50;46.30
41481;DHT22;27217;51.220;5.308;2023-05-14T14:15:32;28.10;48.50
41481;DHT22;27217;51.220;5.308;2023-05-14T14:17:58;27.30;50.10
41481;DHT22;27217;51.220;5.308;2023-05-14T14:20:23;26.80;50.20
41481;DHT22;27217;51.220;5.308;2023-05-14T14:22:49;26.80;50.20
41481;DHT22;27217;51.220;5.308;2023-05-14T14:25:15;26.40;50.60
41481;DHT22;27217;51.220;5.308;2023-05-14T14:27:41;26.40;51.60
41481;DHT22;27217;51.220;5.308;2023-05-14T14:30:08;26.50;52.10
41481;DHT22;27217;51.220;5.308;2023-05-14T14:32:44;26.80;51.70
41481;DHT22;27217;51.220;5.308;2023-05-14T14:35:12;27.00;51.10
41481;DHT22;27217;51.220;5.308;2023-05-14T14:37:39;26.90;51.60
41481;DHT22;27217;51.220;5.308;2023-05-14T14:40:06;27.30;51.40
41481;DHT22;27217;51.220;5.308;2023-05-14T14:42:35;27.60;50.60
41481;DHT22;27217;51.220;5.308;2023-05-14T14:45:03;27.40;50.40
41481;DHT22;27217;51.220;5.308;2023-05-14T14:47:29;26.60;50.60
41481;DHT22;27217;51.220;5.308;2023-05-14T14:49:56;26.40;51.50
41481;DHT22;27217;51.220;5.308;2023-05-14T14:52:23;26.30;51.90
41481;DHT22;27217;51.220;5.308;2023-05-14T14:54:49;25.40;53.50
41481;DHT22;27217;51.220;5.308;2023-05-14T14:57:15;25.40;53.90
41481;DHT22;27217;51.220;5.308;2023-05-14T14:59:41;26.20;53.90
41481;DHT22;27217;51.220;5.308;2023-05-14T15:02:08;27.00;52.80
41481;DHT22;27217;51.220;5.308;2023-05-14T15:04:34;27.70;52.10
41481;DHT22;27217;51.220;5.308;2023-05-14T15:07:01;28.00;52.10
41481;DHT22;27217;51.220;5.308;2023-05-14T15:09:28;27.70;51.70
41481;DHT22;27217;51.220;5.308;2023-05-14T15:11:54;26.60;53.10
41481;DHT22;27217;51.220;5.308;2023-05-14T15:14:20;26.10;53.10
41481;DHT22;27217;51.220;5.308;2023-05-14T15:16:46;26.20;53.90
41481;DHT22;27217;51.220;5.308;2023-05-14T15:19:11;26.10;53.60
41481;DHT22;27217;51.220;5.308;2023-05-14T15:21:37;26.00;54.90
41481;DHT22;27217;51.220;5.308;2023-05-14T15:24:03;26.20;55.40
41481;DHT22;27217;51.220;5.308;2023-05-14T15:26:29;25.60;56.10
41481;DHT22;27217;51.220;5.308;2023-05-14T15:28:55;24.80;57.00
41481;DHT22;27217;51.220;5.308;2023-05-14T15:31:23;24.10;58.90
41481;DHT22;27217;51.220;5.308;2023-05-14T15:33:49;23.90;60.60
41481;DHT22;27217;51.220;5.308;2023-05-14T15:36:15;23.80;61.60
41481;DHT22;27217;51.220;5.308;2023-05-14T15:38:41;24.40;61.40